createdAt,value
2022-09-28T00:04:40.699Z,68.00
2022-09-28T00:09:43.285Z,67.60
2022-09-28T00:14:45.914Z,67.60
2022-09-28T00:19:48.342Z,67.90
2022-09-28T00:25:10.482Z,68.20
2022-09-28T00:30:16.422Z,67.90
2022-09-28T00:35:19.396Z,67.70
2022-09-28T00:40:21.928Z,68.00
2022-09-28T00:45:26.803Z,68.10
2022-09-28T00:50:36.018Z,67.90
2022-09-28T00:55:46.364Z,68.20
2022-09-28T01:00:49.788Z,68.10
2022-09-28T01:05:53.758Z,68.30
2022-09-28T01:10:57.482Z,68.40
2022-09-28T01:31:38.561Z,68.20
2022-09-28T01:36:48.783Z,68.10
2022-09-28T01:41:56.841Z,68.20
2022-09-28T01:47:04.377Z,68.10
2022-09-28T02:02:44.996Z,68.10
2022-09-28T02:13:06.015Z,68.90
2022-09-28T02:18:09.468Z,68.30
2022-09-28T02:23:13.851Z,68.30
2022-09-28T02:28:16.644Z,68.30
2022-09-28T02:33:28.414Z,68.20
2022-09-28T02:38:31.980Z,68.10
2022-09-28T02:59:46.464Z,68.30
2022-09-28T03:10:08.878Z,68.30
2022-09-28T03:15:19.259Z,68.40
2022-09-28T03:20:21.651Z,68.30
2022-09-28T03:25:23.894Z,68.10
2022-09-28T03:30:26.247Z,68.00
2022-09-28T03:35:28.731Z,68.00
2022-09-28T03:40:31.030Z,68.20
2022-09-28T03:45:33.385Z,68.30
2022-09-28T03:50:35.666Z,68.10
2022-09-28T03:55:38.427Z,68.20
2022-09-28T04:00:40.845Z,68.30
2022-09-28T04:05:52.023Z,68.00
2022-09-28T04:10:58.647Z,68.20
2022-09-28T04:16:02.166Z,68.10
2022-09-28T04:21:10.787Z,68.70
2022-09-28T04:26:22.711Z,68.30
2022-09-28T04:31:25.190Z,68.40
2022-09-28T04:36:27.522Z,68.20
2022-09-28T04:41:29.899Z,68.20
2022-09-28T04:46:32.855Z,68.40
2022-09-28T04:51:54.975Z,68.40
2022-09-28T04:56:58.715Z,68.40
2022-09-28T05:02:01.146Z,68.40
2022-09-28T05:07:23.318Z,68.40
2022-09-28T05:12:26.518Z,68.50
2022-09-28T05:17:29.095Z,68.60
2022-09-28T05:22:35.639Z,69.00
2022-09-28T05:27:40.505Z,68.70
2022-09-28T05:32:57.435Z,68.60
2022-09-28T05:38:13.118Z,69.40
2022-09-28T05:43:15.619Z,69.00
2022-09-28T05:48:19.059Z,68.80
2022-09-28T05:53:22.527Z,68.40
2022-09-28T05:58:25.005Z,69.10
2022-09-28T06:03:27.497Z,68.90
2022-09-28T06:08:32.926Z,69.30
2022-09-28T06:13:54.772Z,68.80
2022-09-28T06:18:58.118Z,68.50
2022-09-28T06:24:14.851Z,68.60
2022-09-28T06:29:19.653Z,69.00
2022-09-28T06:34:23.124Z,69.20
2022-09-28T06:39:25.567Z,69.10
2022-09-28T06:44:28.155Z,69.50
2022-09-28T06:49:55.457Z,75.60
2022-09-28T06:55:17.673Z,73.30
2022-09-28T07:00:23.398Z,69.10
2022-09-28T07:05:27.488Z,66.50
2022-09-28T07:10:42.687Z,61.50
2022-09-28T07:16:00.293Z,60.20
2022-09-28T07:21:04.197Z,56.80
2022-09-28T07:26:08.937Z,54.30
2022-09-28T07:31:29.415Z,52.30
2022-09-28T07:36:47.669Z,52.60
2022-09-28T07:41:49.962Z,54.10
2022-09-28T07:46:52.351Z,55.30
2022-09-28T07:52:00.709Z,53.20
2022-09-28T07:57:13.033Z,52.30
2022-09-28T08:02:23.567Z,50.20
2022-09-28T08:07:26.078Z,50.20
2022-09-28T08:12:40.708Z,47.90
2022-09-28T08:18:01.977Z,47.60
2022-09-28T08:23:08.746Z,44.20
2022-09-28T08:28:13.217Z,46.90
2022-09-28T08:33:22.149Z,45.90
2022-09-28T08:38:34.512Z,45.00
2022-09-28T08:44:11.473Z,45.10
2022-09-28T08:49:47.081Z,42.90
2022-09-28T09:00:53.094Z,42.90
2022-09-28T09:27:27.987Z,44.00
2022-09-28T09:59:44.601Z,43.40
2022-09-28T10:05:06.769Z,43.70
2022-09-28T10:10:18.766Z,43.80
2022-09-28T10:15:30.418Z,43.60
2022-09-28T10:20:45.812Z,42.40
2022-09-28T10:25:59.609Z,43.20
2022-09-28T10:31:42.019Z,43.30
2022-09-28T10:37:11.191Z,43.20
2022-09-28T10:42:33.490Z,42.90
2022-09-28T10:47:38.047Z,42.60
2022-09-28T10:52:45.847Z,41.70
2022-09-28T10:58:28.281Z,42.40
2022-09-28T11:03:31.982Z,42.40
2022-09-28T11:08:44.617Z,42.00
2022-09-28T11:14:01.657Z,41.70
2022-09-28T11:24:34.052Z,41.20
2022-09-28T11:29:46.143Z,41.30
2022-09-28T11:35:19.837Z,42.00
2022-09-28T11:40:35.132Z,46.20
2022-09-28T11:51:07.846Z,44.30
2022-09-28T12:06:40.979Z,48.50
2022-09-28T12:11:49.072Z,51.60
2022-09-28T12:17:19.833Z,51.70
2022-09-28T12:27:45.333Z,53.70
2022-09-28T12:59:39.684Z,54.00
2022-09-28T13:10:41.074Z,53.70
2022-09-28T13:26:37.124Z,54.80
2022-09-28T13:31:47.048Z,56.00
2022-09-28T13:37:20.348Z,55.20
2022-09-28T14:04:01.623Z,59.60
2022-09-28T14:09:25.791Z,58.70
2022-09-28T14:14:31.925Z,61.30
2022-09-28T14:19:34.747Z,62.20
2022-09-28T15:07:21.471Z,62.00
2022-09-28T15:12:28.183Z,62.20
2022-09-28T15:22:46.680Z,63.00
2022-09-28T15:27:59.514Z,62.00
2022-09-28T15:33:23.546Z,62.00
2022-09-28T15:38:26.294Z,62.90
2022-09-28T15:43:33.094Z,62.20
2022-09-28T15:59:27.387Z,62.30
2022-09-28T16:15:31.841Z,61.40
2022-09-28T16:20:37.435Z,61.90
2022-09-28T16:25:39.758Z,62.00
2022-09-28T16:36:14.179Z,61.30
2022-09-28T16:41:20.946Z,61.90
2022-09-28T16:46:30.094Z,61.70
2022-09-28T16:51:33.170Z,62.10
2022-09-28T16:56:36.998Z,62.00
2022-09-28T17:01:43.649Z,62.10
2022-09-28T17:06:46.067Z,62.10
2022-09-28T17:11:48.335Z,62.20
2022-09-28T17:17:13.813Z,62.30
2022-09-28T17:22:16.854Z,62.40
2022-09-28T17:27:21.009Z,62.30
2022-09-28T17:32:23.250Z,62.10
2022-09-28T17:37:25.516Z,62.50
2022-09-28T17:42:27.762Z,62.80
2022-09-28T17:47:34.154Z,62.80
2022-09-28T17:52:36.654Z,63.30
2022-09-28T17:57:39.141Z,62.80
2022-09-28T18:02:41.850Z,62.70
2022-09-28T18:07:47.410Z,62.80
2022-09-28T18:12:50.928Z,62.80
2022-09-28T18:17:53.210Z,62.70
2022-09-28T18:22:55.684Z,62.80
2022-09-28T18:28:00.071Z,63.00
2022-09-28T18:33:02.332Z,62.90
2022-09-28T18:38:05.736Z,63.20
2022-09-28T18:43:07.996Z,63.10
2022-09-28T18:48:10.484Z,63.20
2022-09-28T18:53:12.777Z,63.50
2022-09-28T18:58:15.247Z,63.60
2022-09-28T19:03:18.379Z,63.70
2022-09-28T19:08:24.257Z,63.70
2022-09-28T19:13:29.199Z,63.70
2022-09-28T19:18:32.184Z,63.50
2022-09-28T19:23:35.436Z,63.20
2022-09-28T19:28:38.109Z,63.20
2022-09-28T19:33:40.751Z,63.10
2022-09-28T19:38:43.038Z,63.70
2022-09-28T19:43:45.626Z,63.10
2022-09-28T19:48:48.646Z,63.30
2022-09-28T19:53:50.891Z,63.50
2022-09-28T19:58:53.126Z,63.70
2022-09-28T20:03:56.524Z,63.70
2022-09-28T20:08:58.822Z,63.80
2022-09-28T20:14:01.655Z,63.70
2022-09-28T20:19:04.943Z,64.00
2022-09-28T20:24:07.247Z,64.30
2022-09-28T20:29:09.780Z,64.40
2022-09-28T20:34:12.753Z,64.60
2022-09-28T20:39:15.138Z,64.90
2022-09-28T20:44:17.590Z,65.00
2022-09-28T20:49:19.843Z,65.00
2022-09-28T20:54:22.128Z,65.20
2022-09-28T20:59:26.466Z,65.20
2022-09-28T21:04:28.828Z,65.40
2022-09-28T21:09:32.184Z,65.50
2022-09-28T21:14:34.386Z,65.50
2022-09-28T21:19:36.596Z,65.60
2022-09-28T21:24:38.827Z,65.50
2022-09-28T21:29:41.053Z,65.70
2022-09-28T21:34:43.273Z,65.70
2022-09-28T21:39:45.572Z,65.70
2022-09-28T21:44:47.975Z,65.90
2022-09-28T21:49:50.162Z,66.30
2022-09-28T21:54:52.383Z,66.50
2022-09-28T21:59:54.579Z,66.90
2022-09-28T22:04:56.901Z,67.20
2022-09-28T22:09:59.179Z,67.50
2022-09-28T22:15:01.484Z,67.50
2022-09-28T22:20:04.766Z,67.60
2022-09-28T22:25:07.215Z,67.60
2022-09-28T22:30:09.855Z,68.20
2022-09-28T22:35:12.076Z,67.80
2022-09-28T22:40:14.567Z,68.20
2022-09-28T22:45:17.019Z,67.50
2022-09-28T22:50:19.269Z,67.50
2022-09-28T22:55:21.507Z,68.30
2022-09-28T23:00:23.831Z,68.40
2022-09-28T23:05:26.218Z,68.50
2022-09-28T23:10:28.464Z,68.50
2022-09-28T23:15:30.734Z,68.40
2022-09-28T23:20:32.997Z,68.50
2022-09-28T23:25:35.240Z,68.60
2022-09-28T23:30:37.435Z,68.50
2022-09-28T23:35:40.184Z,68.70
2022-09-28T23:40:42.480Z,68.70
2022-09-28T23:45:45.624Z,68.50
2022-09-28T23:50:48.007Z,68.70
2022-09-28T23:55:50.252Z,69.40
